Time;durP1;ratioP1;P1;durP2;ratioP2;P2;SDS_P1;SDS_P2;PMS_P1;PMS_P2;Temp;Humidity;BMP_temperature;BMP_pressure;BME280_temperature;BME280_humidity;BME280_pressure;Samples;Min_cycle;Max_cycle;Signal;HPM_P1;HPM_P2
2022/09/26 00:01:16;;;;;;;;;;;;;;;;;;5116727;28;19977;-78
2022/09/26 00:03:43;;;;;;;;;;;;;;;;;;5096052;28;19928;-76
2022/09/26 00:06:11;;;;;;;;;;;;;;;;;;5095607;28;19924;-79
2022/09/26 00:08:38;;;;;;;;;;;;;;;;;;5094768;28;19924;-78
2022/09/26 00:11:07;;;;;;;;;;;;;;;;;;5095509;28;19931;-79
2022/09/26 00:13:34;;;;;;;;;;;;;;;;;;5093990;28;19924;-77
2022/09/26 00:16:01;;;;;;;;;;;;;;;;;;5093904;28;19978;-78
2022/09/26 00:18:27;;;;;;;;;;;;;;;;;;5093143;28;20015;-77
2022/09/26 00:20:54;;;;;;;;;;;;;;;;;;5093509;28;19977;-76
2022/09/26 00:23:20;;;;;;;;;;;;;;;;;;5094506;28;19947;-78
2022/09/26 00:25:47;;;;;;;;;;;;;;;;;;5098224;28;20373;-76
2022/09/26 00:28:15;;;;;;;;;;;;;;;;;;5099146;28;19934;-75
2022/09/26 00:30:43;;;;;;;;;;;;;;;;;;5099208;28;19934;-79
2022/09/26 00:33:10;;;;;;;;;;;;;;;;;;5097453;28;19932;-77
2022/09/26 00:35:38;;;;;;;;;;;;;;;;;;5097603;28;19924;-77
2022/09/26 00:38:05;;;;;;;;;;;;;;;;;;5098662;28;19924;-77
2022/09/26 00:40:32;;;;;;;;;;;;;;;;;;5098307;28;20296;-78
2022/09/26 00:42:59;;;;;;;;;;;;;;;;;;5098120;28;19928;-77
2022/09/26 00:45:36;;;;;;;;;;;;;;;;;;5097845;28;20394;-77
2022/09/26 00:48:05;;;;;;;;;;;;;;;;;;5098774;28;20003;-78
2022/09/26 00:50:34;;;;;;;;;;;;;;;;;;5098585;28;20055;-77
2022/09/26 00:53:02;;;;;;;;;;;;;;;;;;5096253;28;19975;-77
2022/09/26 00:55:31;;;;;;;;;;;;;;;;;;5097045;28;19982;-76
2022/09/26 00:57:59;;;;;;;;;;;;;;;;;;5097089;28;19930;-77
2022/09/26 01:00:27;;;;;;;;;;;;;;;;;;5097130;28;19924;-78
2022/09/26 01:02:54;;;;;;;;;;;;;;;;;;5111021;28;19924;-75
2022/09/26 01:05:22;;;;;;;;;;;;;;;;;;5117492;28;19924;-78
2022/09/26 01:07:49;;;;;;;;;;;;;;;;;;5116279;28;20461;-77
2022/09/26 01:10:15;;;;;;;;;;;;;;;;;;5115077;28;19930;-77
2022/09/26 01:12:42;;;;;;;;;;;;;;;;;;5115028;28;20390;-77
2022/09/26 01:15:09;;;;;;;;;;;;;;;;;;5114861;28;20426;-77
2022/09/26 01:17:38;;;;;;;;;;;;;;;;;;5115107;28;19930;-77
2022/09/26 01:20:12;;;;;;;;;;;;;;;;;;5114673;28;19924;-77
2022/09/26 01:22:57;;;;;;;;;;;;;;;;;;5115254;28;19924;-77
2022/09/26 01:25:29;;;;;;;;;;;;;;;;;;5114315;28;19924;-77
2022/09/26 01:28:04;;;;;;;;;;;;;;;;;;5115186;28;19924;-76
2022/09/26 01:30:37;;;;;;;;;;;;;;;;;;5114552;28;20011;-77
2022/09/26 01:33:20;;;;;;;;;;;;;;;;;;5114649;28;19924;-77
2022/09/26 01:35:56;;;;;;;;;;;;;;;;;;5114488;28;19923;-77
2022/09/26 01:38:25;;;;;;;;;;;;;;;;;;5114550;28;20464;-77
2022/09/26 01:40:58;;;;;;;;;;;;;;;;;;5114718;28;19923;-76
2022/09/26 01:43:29;;;;;;;;;;;;;;;;;;5114429;28;19924;-77
2022/09/26 01:46:01;;;;;;;;;;;;;;;;;;5114621;28;20015;-77
2022/09/26 01:48:30;;;;;;;;;;;;;;;;;;5114196;28;20231;-76
2022/09/26 01:51:00;;;;;;;;;;;;;;;;;;5114594;28;19940;-78
2022/09/26 01:53:29;;;;;;;;;;;;;;;;;;5114301;28;19971;-78
2022/09/26 01:55:59;;;;;;;;;;;;;;;;;;5116723;28;20294;-77
2022/09/26 01:58:28;;;;;;;;;;;;;;;;;;5114594;28;19923;-78
2022/09/26 02:00:57;;;;;;;;;;;;;;;;;;5115420;28;19940;-76
2022/09/26 02:03:27;;;;;;;;;;;;;;;;;;5095908;28;20294;-76
2022/09/26 02:05:55;;;;;;;;;;;;;;;;;;5093741;28;19924;-76
2022/09/26 02:08:24;;;;;;;;;;;;;;;;;;5093541;28;19928;-75
2022/09/26 02:10:52;;;;;;;;;;;;;;;;;;5093621;28;20019;-76
2022/09/26 02:13:20;;;;;;;;;;;;;;;;;;5093594;28;19935;-76
2022/09/26 02:15:48;;;;;;;;;;;;;;;;;;5093508;28;19925;-76
2022/09/26 02:18:17;;;;;;;;;;;;;;;;;;5093453;28;20026;-76
2022/09/26 02:20:47;;;;;;;;;;;;;;;;;;5093752;28;20321;-75
2022/09/26 02:23:14;;;;;;;;;;;;;;;;;;5093612;28;19924;-76
2022/09/26 02:25:40;;;;;;;;;;;;;;;;;;5093756;28;19928;-76
2022/09/26 02:28:07;;;;;;;;;;;;;;;;;;5092909;28;19924;-76
2022/09/26 02:30:33;;;;;;;;;;;;;;;;;;5093176;28;19950;-76
2022/09/26 02:33:00;;;;;;;;;;;;;;;;;;5093383;28;20268;-76
2022/09/26 02:38:12;;;;;;;;;;;;;;;;;;5093123;28;19998;-75
2022/09/26 02:40:42;;;;;;;;;;;;;;;;;;5093078;28;19931;-77
2022/09/26 02:43:22;;;;;;;;;;;;;;;;;;5094707;28;19946;-76
2022/09/26 02:45:50;;;;;;;;;;;;;;;;;;5102575;28;19924;-76
2022/09/26 02:48:23;;;;;;;;;;;;;;;;;;5106473;28;19924;-76
2022/09/26 02:50:58;;;;;;;;;;;;;;;;;;5104387;28;20357;-76
2022/09/26 02:53:37;;;;;;;;;;;;;;;;;;5095996;28;19924;-76
2022/09/26 02:56:09;;;;;;;;;;;;;;;;;;5092579;28;19931;-76
2022/09/26 02:58:43;;;;;;;;;;;;;;;;;;5092592;28;19946;-76
2022/09/26 03:01:13;;;;;;;;;;;;;;;;;;5092864;28;19931;-76
2022/09/26 03:03:42;;;;;;;;;;;;;;;;;;5112866;28;19924;-77
2022/09/26 03:06:09;;;;;;;;;;;;;;;;;;5113145;28;19924;-77
2022/09/26 03:08:38;;;;;;;;;;;;;;;;;;5112887;28;19924;-76
2022/09/26 03:11:06;;;;;;;;;;;;;;;;;;5113268;28;19924;-77
2022/09/26 03:13:34;;;;;;;;;;;;;;;;;;5114199;28;19974;-75
2022/09/26 03:16:01;;;;;;;;;;;;;;;;;;5114177;28;19927;-76
2022/09/26 03:18:29;;;;;;;;;;;;;;;;;;5114139;28;20301;-76
2022/09/26 03:20:56;;;;;;;;;;;;;;;;;;5113398;28;20447;-76
2022/09/26 03:23:23;;;;;;;;;;;;;;;;;;5113489;28;19959;-76
2022/09/26 03:25:58;;;;;;;;;;;;;;;;;;5112910;28;19923;-76
2022/09/26 03:28:24;;;;;;;;;;;;;;;;;;5112434;28;19974;-76
2022/09/26 03:30:51;;;;;;;;;;;;;;;;;;5112404;28;19927;-76
2022/09/26 03:33:18;;;;;;;;;;;;;;;;;;5112393;28;19970;-76
2022/09/26 03:35:44;;;;;;;;;;;;;;;;;;5112244;28;20006;-76
2022/09/26 03:38:11;;;;;;;;;;;;;;;;;;5112668;28;20023;-76
2022/09/26 03:40:40;;;;;;;;;;;;;;;;;;5112279;28;19924;-75
2022/09/26 03:43:09;;;;;;;;;;;;;;;;;;5111509;28;20405;-75
2022/09/26 03:45:36;;;;;;;;;;;;;;;;;;5092760;28;19924;-76
2022/09/26 03:48:02;;;;;;;;;;;;;;;;;;5098543;28;19924;-75
2022/09/26 03:50:29;;;;;;;;;;;;;;;;;;5098492;28;19928;-76
2022/09/26 03:52:55;;;;;;;;;;;;;;;;;;5113298;28;19930;-76
2022/09/26 03:55:22;;;;;;;;;;;;;;;;;;5112423;28;19967;-76
2022/09/26 03:57:48;;;;;;;;;;;;;;;;;;5112797;28;19924;-76
2022/09/26 04:00:16;;;;;;;;;;;;;;;;;;5115982;28;19923;-77
2022/09/26 04:02:43;;;;;;;;;;;;;;;;;;5104088;28;19931;-76
2022/09/26 04:05:09;;;;;;;;;;;;;;;;;;5096199;28;19930;-77
2022/09/26 04:07:35;;;;;;;;;;;;;;;;;;5096112;28;19930;-77
2022/09/26 04:10:02;;;;;;;;;;;;;;;;;;5095594;28;19959;-76
2022/09/26 04:12:28;;;;;;;;;;;;;;;;;;5095881;28;20298;-77
2022/09/26 04:14:55;;;;;;;;;;;;;;;;;;5095730;28;19924;-77
2022/09/26 04:17:22;;;;;;;;;;;;;;;;;;5095493;28;20394;-77
2022/09/26 04:19:49;;;;;;;;;;;;;;;;;;5095061;28;20018;-77
2022/09/26 04:22:15;;;;;;;;;;;;;;;;;;5095458;28;19930;-77
2022/09/26 04:24:43;;;;;;;;;;;;;;;;;;5095613;28;20011;-76
2022/09/26 04:27:09;;;;;;;;;;;;;;;;;;5095396;28;20457;-76
2022/09/26 04:29:36;;;;;;;;;;;;;;;;;;5095984;28;20010;-77
2022/09/26 04:32:02;;;;;;;;;;;;;;;;;;5096671;28;19928;-77
2022/09/26 04:34:30;;;;;;;;;;;;;;;;;;5097187;28;19931;-77
2022/09/26 04:36:59;;;;;;;;;;;;;;;;;;5096730;28;19927;-76
2022/09/26 04:39:25;;;;;;;;;;;;;;;;;;5097267;28;20023;-76
2022/09/26 04:41:52;;;;;;;;;;;;;;;;;;5096592;28;19989;-77
2022/09/26 04:44:18;;;;;;;;;;;;;;;;;;5095268;28;19924;-77
2022/09/26 04:46:45;;;;;;;;;;;;;;;;;;5095333;28;20011;-78
2022/09/26 04:49:11;;;;;;;;;;;;;;;;;;5094546;28;20507;-76
2022/09/26 04:51:39;;;;;;;;;;;;;;;;;;5094735;28;19930;-76
2022/09/26 04:54:05;;;;;;;;;;;;;;;;;;5094989;28;19924;-75
2022/09/26 04:56:32;;;;;;;;;;;;;;;;;;5094831;28;19924;-76
2022/09/26 04:58:59;;;;;;;;;;;;;;;;;;5094518;28;19924;-76
2022/09/26 05:01:26;;;;;;;;;;;;;;;;;;5094888;28;20015;-76
2022/09/26 05:03:55;;;;;;;;;;;;;;;;;;5094996;28;19924;-76
2022/09/26 05:06:22;;;;;;;;;;;;;;;;;;5094789;28;19925;-76
2022/09/26 05:08:50;;;;;;;;;;;;;;;;;;5094350;28;20014;-76
2022/09/26 05:11:17;;;;;;;;;;;;;;;;;;5093831;28;19924;-76
2022/09/26 05:13:43;;;;;;;;;;;;;;;;;;5094689;28;19928;-76
2022/09/26 05:16:11;;;;;;;;;;;;;;;;;;5094332;28;19924;-77
2022/09/26 05:18:38;;;;;;;;;;;;;;;;;;5094370;28;19924;-77
2022/09/26 05:21:06;;;;;;;;;;;;;;;;;;5094630;28;19924;-76
2022/09/26 05:26:22;;;;;;;;;;;;;;;;;;5094250;28;19977;-76
2022/09/26 05:28:50;;;;;;;;;;;;;;;;;;5094395;28;20015;-75
2022/09/26 05:31:17;;;;;;;;;;;;;;;;;;5094289;28;19924;-76
2022/09/26 05:33:44;;;;;;;;;;;;;;;;;;5094358;28;19936;-76
2022/09/26 05:36:10;;;;;;;;;;;;;;;;;;5094137;28;19924;-76
2022/09/26 05:38:37;;;;;;;;;;;;;;;;;;5094437;28;20604;-77
2022/09/26 05:41:02;;;;;;;;;;;;;;;;;;5094573;28;20333;-77
2022/09/26 05:43:32;;;;;;;;;;;;;;;;;;5094771;28;19924;-77
2022/09/26 05:45:58;;;;;;;;;;;;;;;;;;5094318;28;19974;-76
2022/09/26 05:48:25;;;;;;;;;;;;;;;;;;5103319;28;19924;-77
2022/09/26 05:50:51;;;;;;;;;;;;;;;;;;5094564;28;19950;-78
2022/09/26 05:53:18;;;;;;;;;;;;;;;;;;5094453;28;19931;-77
2022/09/26 05:55:48;;;;;;;;;;;;;;;;;;5094143;28;20387;-78
2022/09/26 05:58:17;;;;;;;;;;;;;;;;;;5094375;28;19924;-78
2022/09/26 06:00:46;;;;;;;;;;;;;;;;;;5094021;28;19924;-78
2022/09/26 06:03:13;;;;;;;;;;;;;;;;;;5110301;28;19923;-78
2022/09/26 06:05:40;;;;;;;;;;;;;;;;;;5114327;28;19923;-78
2022/09/26 06:08:07;;;;;;;;;;;;;;;;;;5115065;28;19924;-78
2022/09/26 06:10:34;;;;;;;;;;;;;;;;;;5113897;28;19924;-77
2022/09/26 06:13:01;;;;;;;;;;;;;;;;;;5114271;28;19951;-77
2022/09/26 06:15:28;;;;;;;;;;;;;;;;;;5113620;28;19924;-78
2022/09/26 06:18:00;;;;;;;;;;;;;;;;;;5114141;28;20400;-77
2022/09/26 06:20:26;;;;;;;;;;;;;;;;;;5113598;28;19924;-76
2022/09/26 06:22:54;;;;;;;;;;;;;;;;;;5113493;28;20386;-77
2022/09/26 06:25:20;;;;;;;;;;;;;;;;;;5114677;28;19963;-78
2022/09/26 06:27:47;;;;;;;;;;;;;;;;;;5113703;28;20011;-77
2022/09/26 06:30:15;;;;;;;;;;;;;;;;;;5113433;28;20456;-77
2022/09/26 06:32:41;;;;;;;;;;;;;;;;;;5113568;28;19924;-76
2022/09/26 06:35:09;;;;;;;;;;;;;;;;;;5113704;28;20374;-76
2022/09/26 06:37:35;;;;;;;;;;;;;;;;;;5113837;28;19924;-76
2022/09/26 06:40:02;;;;;;;;;;;;;;;;;;5113336;28;19931;-76
2022/09/26 06:42:36;;;;;;;;;;;;;;;;;;5113563;28;19924;-76
2022/09/26 06:45:03;;;;;;;;;;;;;;;;;;5114251;28;19928;-77
2022/09/26 06:47:30;;;;;;;;;;;;;;;;;;5114059;28;19935;-77
2022/09/26 06:49:56;;;;;;;;;;;;;;;;;;5113458;28;20393;-76
2022/09/26 06:52:24;;;;;;;;;;;;;;;;;;5113515;28;20374;-76
2022/09/26 06:54:51;;;;;;;;;;;;;;;;;;5113517;28;19935;-76
2022/09/26 06:57:17;;;;;;;;;;;;;;;;;;5113288;28;19966;-77
2022/09/26 06:59:43;;;;;;;;;;;;;;;;;;5113289;28;20407;-77
2022/09/26 07:02:11;;;;;;;;;;;;;;;;;;5102807;28;19934;-78
2022/09/26 07:04:37;;;;;;;;;;;;;;;;;;5117440;28;19924;-78
2022/09/26 07:07:03;;;;;;;;;;;;;;;;;;5114350;28;19923;-78
2022/09/26 07:09:32;;;;;;;;;;;;;;;;;;5112046;28;20394;-77
2022/09/26 07:11:59;;;;;;;;;;;;;;;;;;5111980;28;19924;-77
2022/09/26 07:14:25;;;;;;;;;;;;;;;;;;5112994;28;19931;-79
2022/09/26 07:16:52;;;;;;;;;;;;;;;;;;5114156;28;19971;-77
2022/09/26 07:19:19;;;;;;;;;;;;;;;;;;5110998;28;19931;-77
2022/09/26 07:21:45;;;;;;;;;;;;;;;;;;5111215;28;19930;-77
2022/09/26 07:24:13;;;;;;;;;;;;;;;;;;5111540;28;19930;-76
2022/09/26 07:26:41;;;;;;;;;;;;;;;;;;5111378;28;20022;-77
2022/09/26 07:29:15;;;;;;;;;;;;;;;;;;5111681;28;19927;-76
2022/09/26 07:31:42;;;;;;;;;;;;;;;;;;5115127;28;19912;-76
2022/09/26 07:34:09;;;;;;;;;;;;;;;;;;5118668;28;19956;-77
2022/09/26 07:36:38;;;;;;;;;;;;;;;;;;5119810;28;20029;-77
2022/09/26 07:39:05;;;;;;;;;;;;;;;;;;5118565;28;19935;-77
2022/09/26 07:41:31;;;;;;;;;;;;;;;;;;5104356;28;19924;-77
2022/09/26 07:43:59;;;;;;;;;;;;;;;;;;5099579;28;19928;-77
2022/09/26 07:51:54;;;;;;;;;;;;;;;;;;5094325;28;20418;-77
2022/09/26 07:54:21;;;;;;;;;;;;;;;;;;5094630;28;19924;-76
2022/09/26 07:56:47;;;;;;;;;;;;;;;;;;5094265;28;20011;-77
2022/09/26 07:59:15;;;;;;;;;;;;;;;;;;5094090;28;20483;-76
2022/09/26 08:01:41;;;;;;;;;;;;;;;;;;5094064;28;19931;-77
2022/09/26 08:04:10;;;;;;;;;;;;;;;;;;5100303;28;20426;-77
2022/09/26 08:06:37;;;;;;;;;;;;;;;;;;5113865;28;19996;-77
2022/09/26 08:09:04;;;;;;;;;;;;;;;;;;5114273;28;19928;-77
2022/09/26 08:11:30;;;;;;;;;;;;;;;;;;5114379;28;19977;-76
2022/09/26 08:13:57;;;;;;;;;;;;;;;;;;5113911;28;19928;-76
2022/09/26 08:16:24;;;;;;;;;;;;;;;;;;5113776;28;19942;-76
2022/09/26 08:18:51;;;;;;;;;;;;;;;;;;5113702;28;20344;-77
2022/09/26 08:21:18;;;;;;;;;;;;;;;;;;5114129;28;19977;-77
2022/09/26 08:23:45;;;;;;;;;;;;;;;;;;5114109;28;20014;-77
2022/09/26 08:26:12;;;;;;;;;;;;;;;;;;5114186;28;19924;-77
2022/09/26 08:28:38;;;;;;;;;;;;;;;;;;5113828;28;19930;-77
2022/09/26 08:31:05;;;;;;;;;;;;;;;;;;5113819;28;20112;-76
2022/09/26 08:33:34;;;;;;;;;;;;;;;;;;5113388;28;19924;-77
2022/09/26 08:36:03;;;;;;;;;;;;;;;;;;5113206;28;19924;-76
2022/09/26 08:38:30;;;;;;;;;;;;;;;;;;5113264;28;20336;-77
2022/09/26 08:41:00;;;;;;;;;;;;;;;;;;5113485;28;20572;-77
2022/09/26 08:43:34;;;;;;;;;;;;;;;;;;5114633;28;19932;-77
2022/09/26 08:49:13;;;;;;;;;;;;;;;;;;5075449;28;19923;-77
2022/09/26 08:51:41;;;;;;;;;;;;;;;;;;5113102;28;19944;-77
2022/09/26 08:54:10;;;;;;;;;;;;;;;;;;5112807;28;19923;-78
2022/09/26 08:56:40;;;;;;;;;;;;;;;;;;5113752;28;19928;-78
2022/09/26 08:59:11;;;;;;;;;;;;;;;;;;5113551;28;19930;-77
2022/09/26 09:01:39;;;;;;;;;;;;;;;;;;5113391;28;19924;-77
2022/09/26 09:04:12;;;;;;;;;;;;;;;;;;5113531;28;19937;-78
2022/09/26 09:06:39;;;;;;;;;;;;;;;;;;5112975;28;20498;-77
2022/09/26 09:09:05;;;;;;;;;;;;;;;;;;5112659;28;20389;-77
2022/09/26 09:11:41;;;;;;;;;;;;;;;;;;5112973;28;20382;-77
2022/09/26 09:14:15;;;;;;;;;;;;;;;;;;5113052;28;19925;-77
2022/09/26 09:16:50;;;;;;;;;;;;;;;;;;5112882;28;19930;-77
2022/09/26 09:19:23;;;;;;;;;;;;;;;;;;5112362;28;19971;-76
2022/09/26 09:21:58;;;;;;;;;;;;;;;;;;5113011;28;19923;-76
2022/09/26 09:24:32;;;;;;;;;;;;;;;;;;5146359;22;19946;-52
2022/09/26 09:27:04;;;;;;;;;;;;;;;;;;5111635;28;19948;-51
2022/09/26 09:29:39;;;;;;;;;;;;;;;;;;5111413;28;19928;-53
2022/09/26 09:32:09;;;;;;;;;;;;;;;;;;5111646;28;19984;-55
2022/09/26 09:34:40;;;;;;;;;;;;;;;;;;5111394;28;19924;-54
2022/09/26 09:37:10;;;;;;;;;;;;;;;;;;5111678;28;19923;-50
2022/09/26 09:39:39;;;;;;;;;;;;;;;;;;5111539;28;20039;-52
2022/09/26 09:42:10;;;;;;;;;;;;;;;;;;5111290;28;19924;-53
2022/09/26 09:44:41;;;;;;;;;;;;;;;;;;5110923;28;20257;-52
2022/09/26 09:47:11;;;;;;;;;;;;;;;;;;5110179;28;19924;-51
2022/09/26 09:49:39;;;;;;;;;;;;;;;;;;5090929;28;19924;-50
2022/09/26 09:52:10;;;;;;;;;;;;;;;;;;5090686;28;19969;-52
2022/09/26 09:54:44;;;;;;;;;;;;;;;;;;5090907;28;19925;-49
2022/09/26 09:57:24;;;;;;;;;;;;;;;;;;5089562;28;19927;-52
2022/09/26 09:59:56;;;;;;;;;;;;;;;;;;5090528;28;20038;-55
2022/09/26 10:02:29;;;;;;;;;;;;;;;;;;5096049;28;20396;-50
2022/09/26 10:04:59;;;;;;;;;;;;;;;;;;5111131;28;19977;-50
2022/09/26 10:07:26;;;;;;;;;;;;;;;;;;5111031;28;19935;-50
2022/09/26 10:09:53;;;;;;;;;;;;;;;;;;5111097;28;19970;-51
2022/09/26 10:12:20;;;;;;;;;;;;;;;;;;5110917;28;19924;-49
2022/09/26 10:14:49;;;;;;;;;;;;;;;;;;5110781;28;19927;-49
2022/09/26 10:17:19;;;;;;;;;;;;;;;;;;5110532;28;20448;-51
2022/09/26 10:19:46;;;;;;;;;;;;;;;;;;5110567;28;19924;-50
2022/09/26 10:22:20;;;;;;;;;;;;;;;;;;5110656;28;20360;-56
2022/09/26 10:24:47;;;;;;;;;;;;;;;;;;5043641;28;1891412;-50
2022/09/26 10:27:15;;;;;;;;;;;;;;;;;;5111122;28;20331;-52
2022/09/26 10:29:44;;;;;;;;;;;;;;;;;;5111778;28;19993;-50
2022/09/26 10:32:10;;;;;;;;;;;;;;;;;;5111527;28;19960;-52
2022/09/26 10:34:38;;;;;;;;;;;;;;;;;;5111240;28;19923;-50
2022/09/26 10:37:21;;;;;;;;;;;;;;;;;;5111143;28;19927;-50
2022/09/26 10:42:37;;;;;;;;;;;;;;;;;;5111624;28;19931;-52
2022/09/26 10:45:11;;;;;;;;;;;;;;;;;;5113432;27;19934;-54
2022/09/26 10:47:38;;;;;;;;;;;;;;;;;;5112576;27;19955;-51
2022/09/26 10:50:08;;;;;;;;;;;;;;;;;;5111026;28;19977;-51
2022/09/26 10:52:38;;;;;;;;;;;;;;;;;;5111484;28;19935;-54
2022/09/26 10:55:07;;;;;;;;;;;;;;;;;;5111389;28;19946;-51
2022/09/26 10:57:35;;;;;;;;;;;;;;;;;;5111050;28;19998;-53
2022/09/26 11:00:05;;;;;;;;;;;;;;;;;;5110681;28;20349;-52
2022/09/26 11:02:32;;;;;;;;;;;;;;;;;;5111190;28;20015;-51
2022/09/26 11:07:46;;;;;;;;;;;;;;;;;;5110876;28;19950;-51
2022/09/26 11:10:13;;;;;;;;;;;;;;;;;;5111077;28;19928;-51
2022/09/26 11:12:55;;;;;;;;;;;;;;;;;;5111353;28;20377;-52
2022/09/26 11:15:22;;;;;;;;;;;;;;;;;;5111136;28;20409;-50
2022/09/26 11:17:49;;;;;;;;;;;;;;;;;;5110875;28;20384;-53
2022/09/26 11:20:27;;;;;;;;;;;;;;;;;;5109625;28;19942;-54
2022/09/26 11:23:01;;;;;;;;;;;;;;;;;;5110736;28;19977;-53
2022/09/26 11:25:29;;;;;;;;;;;;;;;;;;5110873;28;20229;-52
2022/09/26 11:28:00;;;;;;;;;;;;;;;;;;5110493;28;19927;-50
2022/09/26 11:30:27;;;;;;;;;;;;;;;;;;5111132;28;19928;-49
2022/09/26 11:32:55;;;;;;;;;;;;;;;;;;5111484;28;19927;-53
2022/09/26 11:35:28;;;;;;;;;;;;;;;;;;5110942;28;19934;-51
2022/09/26 11:38:10;;;;;;;;;;;;;;;;;;5110996;28;20369;-48
2022/09/26 11:40:45;;;;;;;;;;;;;;;;;;5107293;28;19977;-52
2022/09/26 11:43:18;;;;;;;;;;;;;;;;;;5110830;28;19928;-50
2022/09/26 11:46:01;;;;;;;;;;;;;;;;;;5110724;28;20010;-52
2022/09/26 11:48:34;;;;;;;;;;;;;;;;;;5111023;28;19924;-49
2022/09/26 11:51:03;;;;;;;;;;;;;;;;;;5110932;28;19932;-49
2022/09/26 11:53:50;;;;;;;;;;;;;;;;;;5110945;28;19928;-50
2022/09/26 11:56:30;;;;;;;;;;;;;;;;;;5103859;28;19969;-54
2022/09/26 11:59:02;;;;;;;;;;;;;;;;;;5095326;28;19935;-53
2022/09/26 12:01:37;;;;;;;;;;;;;;;;;;5102448;28;19924;-49
2022/09/26 12:04:26;;;;;;;;;;;;;;;;;;5090481;28;20298;-50
2022/09/26 12:06:55;;;;;;;;;;;;;;;;;;5090581;28;19924;-51
2022/09/26 12:09:32;;;;;;;;;;;;;;;;;;5090217;28;19978;-49
2022/09/26 12:12:04;;;;;;;;;;;;;;;;;;5089840;28;19924;-50
2022/09/26 12:14:38;;;;;;;;;;;;;;;;;;5090214;28;19930;-50
2022/09/26 12:17:08;;;;;;;;;;;;;;;;;;5090032;28;19931;-51
2022/09/26 12:19:38;;;;;;;;;;;;;;;;;;5091883;28;19977;-52
2022/09/26 12:24:57;;;;;;;;;;;;;;;;;;5093965;28;19931;-50
2022/09/26 12:27:31;;;;;;;;;;;;;;;;;;5093593;28;19946;-49
2022/09/26 12:30:04;;;;;;;;;;;;;;;;;;5093927;28;20014;-49
2022/09/26 12:32:40;;;;;;;;;;;;;;;;;;5093600;28;19994;-53
2022/09/26 12:35:19;;;;;;;;;;;;;;;;;;5093522;28;20346;-53
2022/09/26 12:38:04;;;;;;;;;;;;;;;;;;5093690;28;19978;-50
2022/09/26 12:40:34;;;;;;;;;;;;;;;;;;5093602;28;19963;-51
2022/09/26 12:43:19;;;;;;;;;;;;;;;;;;5093413;28;19924;-50
2022/09/26 12:46:03;;;;;;;;;;;;;;;;;;5093377;28;20315;-52
2022/09/26 12:48:37;;;;;;;;;;;;;;;;;;5093637;28;19924;-51
2022/09/26 12:51:14;;;;;;;;;;;;;;;;;;5093465;28;20432;-52
2022/09/26 12:53:54;;;;;;;;;;;;;;;;;;5113683;28;20262;-52
2022/09/26 12:56:25;;;;;;;;;;;;;;;;;;5096706;28;19924;-49
2022/09/26 12:59:00;;;;;;;;;;;;;;;;;;5108362;28;19930;-52
2022/09/26 13:01:42;;;;;;;;;;;;;;;;;;5096135;28;19985;-53
2022/09/26 13:04:29;;;;;;;;;;;;;;;;;;5103804;28;19931;-50
2022/09/26 13:07:05;;;;;;;;;;;;;;;;;;5098993;28;19984;-51
2022/09/26 13:09:46;;;;;;;;;;;;;;;;;;5099185;28;19924;-52
2022/09/26 13:12:19;;;;;;;;;;;;;;;;;;5112863;28;20044;-52
2022/09/26 13:14:54;;;;;;;;;;;;;;;;;;5112837;28;19947;-54
2022/09/26 13:17:22;;;;;;;;;;;;;;;;;;5112991;28;20011;-55
2022/09/26 13:19:52;;;;;;;;;;;;;;;;;;5113011;28;20010;-54
2022/09/26 13:22:24;;;;;;;;;;;;;;;;;;5112661;28;19932;-53
2022/09/26 13:24:54;;;;;;;;;;;;;;;;;;5113093;28;19931;-49
2022/09/26 13:27:25;;;;;;;;;;;;;;;;;;5113324;28;19927;-51
2022/09/26 13:29:59;;;;;;;;;;;;;;;;;;5112966;28;19924;-53
2022/09/26 13:32:28;;;;;;;;;;;;;;;;;;5112150;28;19924;-54
2022/09/26 13:34:59;;;;;;;;;;;;;;;;;;5113047;28;19976;-53
2022/09/26 13:37:30;;;;;;;;;;;;;;;;;;5112646;28;19931;-53
2022/09/26 13:40:01;;;;;;;;;;;;;;;;;;5112846;28;20006;-53
2022/09/26 13:42:33;;;;;;;;;;;;;;;;;;5112869;28;19980;-52
2022/09/26 13:45:07;;;;;;;;;;;;;;;;;;5112404;28;19924;-50
2022/09/26 13:47:37;;;;;;;;;;;;;;;;;;5101847;28;19924;-53
2022/09/26 13:50:14;;;;;;;;;;;;;;;;;;5106411;28;19924;-53
2022/09/26 13:52:51;;;;;;;;;;;;;;;;;;5112300;28;19924;-52
2022/09/26 13:55:19;;;;;;;;;;;;;;;;;;5112792;28;20304;-49
2022/09/26 13:57:46;;;;;;;;;;;;;;;;;;5112772;28;19924;-54
2022/09/26 14:00:37;;;;;;;;;;;;;;;;;;5112460;28;19924;-52
2022/09/26 14:03:23;;;;;;;;;;;;;;;;;;5112503;28;19979;-54
2022/09/26 14:05:51;;;;;;;;;;;;;;;;;;5097616;28;19924;-55
2022/09/26 14:11:26;;;;;;;;;;;;;;;;;;5110045;28;19934;-52
2022/09/26 14:14:07;;;;;;;;;;;;;;;;;;5106016;28;20289;-52
2022/09/26 14:16:35;;;;;;;;;;;;;;;;;;5096504;28;19930;-51
2022/09/26 14:19:05;;;;;;;;;;;;;;;;;;5108528;28;20014;-54
2022/09/26 14:21:37;;;;;;;;;;;;;;;;;;5103089;28;19924;-54
2022/09/26 14:24:34;;;;;;;;;;;;;;;;;;5098688;28;20300;-50
2022/09/26 14:27:05;;;;;;;;;;;;;;;;;;4992610;28;19925;-52
2022/09/26 14:29:34;;;;;;;;;;;;;;;;;;5070486;28;19924;-51
2022/09/26 14:32:03;;;;;;;;;;;;;;;;;;5091217;28;19931;-53
2022/09/26 14:34:34;;;;;;;;;;;;;;;;;;5091354;28;20433;-51
2022/09/26 14:37:03;;;;;;;;;;;;;;;;;;5091632;28;19928;-54
2022/09/26 14:39:33;;;;;;;;;;;;;;;;;;5091301;28;19932;-51
2022/09/26 14:42:07;;;;;;;;;;;;;;;;;;5091083;28;20126;-52
2022/09/26 14:44:34;;;;;;;;;;;;;;;;;;5091181;28;19924;-52
2022/09/26 14:47:04;;;;;;;;;;;;;;;;;;5105004;28;19924;-52
2022/09/26 14:49:31;;;;;;;;;;;;;;;;;;5091002;28;20411;-54
2022/09/26 14:52:04;;;;;;;;;;;;;;;;;;5101794;28;19935;-55
2022/09/26 14:54:37;;;;;;;;;;;;;;;;;;5103436;28;19946;-57
2022/09/26 14:57:06;;;;;;;;;;;;;;;;;;5111349;28;20369;-54
2022/09/26 14:59:43;;;;;;;;;;;;;;;;;;5111080;28;19993;-56
2022/09/26 15:02:24;;;;;;;;;;;;;;;;;;5103756;28;19924;-55
2022/09/26 15:04:54;;;;;;;;;;;;;;;;;;5098691;28;19986;-55
2022/09/26 15:07:21;;;;;;;;;;;;;;;;;;5099304;28;20407;-57
2022/09/26 15:09:54;;;;;;;;;;;;;;;;;;5100143;28;19928;-55
2022/09/26 15:12:22;;;;;;;;;;;;;;;;;;5099950;28;19928;-56
2022/09/26 15:14:51;;;;;;;;;;;;;;;;;;5100365;28;19931;-54
2022/09/26 15:17:20;;;;;;;;;;;;;;;;;;5099513;28;20352;-56
2022/09/26 15:19:48;;;;;;;;;;;;;;;;;;5099975;28;19924;-56
2022/09/26 15:22:16;;;;;;;;;;;;;;;;;;5101299;28;19960;-57
2022/09/26 15:24:43;;;;;;;;;;;;;;;;;;5099949;28;19927;-54
2022/09/26 15:27:13;;;;;;;;;;;;;;;;;;5100212;28;19928;-56
2022/09/26 15:29:45;;;;;;;;;;;;;;;;;;5099218;28;19932;-56
2022/09/26 15:32:18;;;;;;;;;;;;;;;;;;5099220;28;20313;-56
2022/09/26 15:34:45;;;;;;;;;;;;;;;;;;5102038;28;20289;-55
2022/09/26 15:37:17;;;;;;;;;;;;;;;;;;5098571;28;20217;-55
2022/09/26 15:39:44;;;;;;;;;;;;;;;;;;5097879;28;20375;-55
2022/09/26 15:45:24;;;;;;;;;;;;;;;;;;5090444;28;19931;-54
2022/09/26 15:47:51;;;;;;;;;;;;;;;;;;5090254;28;20101;-57
2022/09/26 15:50:19;;;;;;;;;;;;;;;;;;5089723;28;19935;-55
2022/09/26 15:52:49;;;;;;;;;;;;;;;;;;5090163;28;20291;-57
2022/09/26 15:55:17;;;;;;;;;;;;;;;;;;5092899;28;19931;-56
2022/09/26 15:57:47;;;;;;;;;;;;;;;;;;5094069;28;19931;-57
2022/09/26 16:00:15;;;;;;;;;;;;;;;;;;5094004;28;19925;-53
2022/09/26 16:02:42;;;;;;;;;;;;;;;;;;5105838;28;19931;-55
2022/09/26 16:05:10;;;;;;;;;;;;;;;;;;5131359;22;20412;-76
2022/09/26 16:07:36;;;;;;;;;;;;;;;;;;5113935;28;20385;-77
2022/09/26 16:10:04;;;;;;;;;;;;;;;;;;5114245;28;20337;-76
2022/09/26 16:12:30;;;;;;;;;;;;;;;;;;5114630;28;19973;-76
2022/09/26 16:15:01;;;;;;;;;;;;;;;;;;5114130;28;20401;-76
2022/09/26 16:17:31;;;;;;;;;;;;;;;;;;5114427;28;20019;-77
2022/09/26 16:19:58;;;;;;;;;;;;;;;;;;5113997;28;19927;-76
2022/09/26 16:22:44;;;;;;;;;;;;;;;;;;5114266;28;20374;-77
2022/09/26 16:25:21;;;;;;;;;;;;;;;;;;5114425;28;20369;-77
2022/09/26 16:27:51;;;;;;;;;;;;;;;;;;5104429;28;19924;-79
2022/09/26 16:30:37;;;;;;;;;;;;;;;;;;5094403;28;19924;-77
2022/09/26 16:33:28;;;;;;;;;;;;;;;;;;5093436;28;19963;-77
2022/09/26 16:35:55;;;;;;;;;;;;;;;;;;5072732;28;19967;-76
2022/09/26 16:38:23;;;;;;;;;;;;;;;;;;5093085;28;19974;-76
2022/09/26 16:40:50;;;;;;;;;;;;;;;;;;5093093;28;20007;-77
2022/09/26 16:43:22;;;;;;;;;;;;;;;;;;5093698;28;19995;-76
2022/09/26 16:45:53;;;;;;;;;;;;;;;;;;5093594;28;19931;-77
2022/09/26 16:48:39;;;;;;;;;;;;;;;;;;5094068;28;19931;-76
2022/09/26 16:51:14;;;;;;;;;;;;;;;;;;5093293;28;19994;-75
2022/09/26 16:53:43;;;;;;;;;;;;;;;;;;5092786;28;19932;-77
2022/09/26 16:56:11;;;;;;;;;;;;;;;;;;5094912;28;20443;-74
2022/09/26 16:58:38;;;;;;;;;;;;;;;;;;5094514;28;19924;-78
2022/09/26 17:03:50;;;;;;;;;;;;;;;;;;5095971;28;20345;-76
2022/09/26 17:06:16;;;;;;;;;;;;;;;;;;5095885;28;19928;-77
2022/09/26 17:08:43;;;;;;;;;;;;;;;;;;5113774;28;19912;-77
2022/09/26 17:11:13;;;;;;;;;;;;;;;;;;5116209;28;19912;-77
2022/09/26 17:13:40;;;;;;;;;;;;;;;;;;5111435;28;19928;-76
2022/09/26 17:16:09;;;;;;;;;;;;;;;;;;5103519;28;19980;-77
2022/09/26 17:18:36;;;;;;;;;;;;;;;;;;5102073;28;19931;-77
2022/09/26 17:21:03;;;;;;;;;;;;;;;;;;5098513;28;19924;-78
2022/09/26 17:23:30;;;;;;;;;;;;;;;;;;5096451;28;19970;-78
2022/09/26 17:25:56;;;;;;;;;;;;;;;;;;5103248;28;19956;-74
2022/09/26 17:28:26;;;;;;;;;;;;;;;;;;5103309;28;19924;-76
2022/09/26 17:30:54;;;;;;;;;;;;;;;;;;5099199;28;19988;-77
2022/09/26 17:33:29;;;;;;;;;;;;;;;;;;5093722;28;20279;-76
2022/09/26 17:35:55;;;;;;;;;;;;;;;;;;5093686;28;20437;-76